Greenville, Kentucky
Current Conditions -  °F | °C
As of 8:35 AM on Saturday 25 Oct 2014 (Local Time) from K2I0 Reporting Station
Overcast Overcast  
Wind Chill: 63°   Ceiling: 3900
Heat Index: 63°   Visibility: 10mi
Dew Point: 58°   Wind: 7mph
Humidity: 83%   Direction: 230°SW
Pressure: 30.04"   Gusts: NA
Location:  37.2°N, 87.18°W
Report Text: K2I0 251335Z AUTO 23006KT 10SM OVC039 17/14 A3004 RMK AO2 T01710142
Loading
Personal Weather Stations






























Interactive Weather Map
Tropical Storm Tracking
New forecast layout! Learn more

10-Day Weather Forecast

Advertisements
Track Severe Weather on mobile